createdAt,value
2018-08-16T15:06:35.647Z,998.19
2018-08-16T15:07:36.687Z,998.21
2018-08-16T15:08:47.328Z,998.18
2018-08-16T15:09:47.867Z,998.21
2018-08-16T15:10:50.106Z,998.1
2018-08-16T15:11:52.852Z,998.12
2018-08-16T15:12:54.065Z,998.11
2018-08-16T15:13:55.741Z,998.08
2018-08-16T15:14:57.387Z,998.11
2018-08-16T15:15:59.653Z,998.07
2018-08-16T15:17:01.483Z,998.2
2018-08-16T15:17:59.018Z,998.05
2018-08-16T15:19:01.329Z,998.17
2018-08-16T15:20:14.797Z,998.11
2018-08-16T15:21:27.658Z,998.11
2018-08-16T15:22:23.972Z,998.02
2018-08-16T15:23:29.054Z,998.04
2018-08-16T15:24:27.924Z,998.13
2018-08-16T15:25:33.104Z,998.07
2018-08-16T15:26:36.655Z,998.13
2018-08-16T15:27:36.134Z,998.11
2018-08-16T15:28:34.666Z,998.08
2018-08-16T15:29:32.557Z,998.19
2018-08-16T15:30:39.784Z,998.08
2018-08-16T15:31:53.512Z,998.11
2018-08-16T15:32:52.917Z,998.07
2018-08-16T15:33:52.207Z,998.13
2018-08-16T15:34:49.978Z,998.1
2018-08-16T15:35:57.201Z,998.02
2018-08-16T15:37:00.080Z,998.04
2018-08-16T15:37:57.530Z,998.04
2018-08-16T15:38:55.149Z,998.04
2018-08-16T15:39:52.853Z,998.11
2018-08-16T15:40:52.656Z,998.01
2018-08-16T15:41:50.301Z,998.02
2018-08-16T15:42:46.569Z,997.95
2018-08-16T15:43:57.364Z,998.08
2018-08-16T15:44:53.928Z,998.05
2018-08-16T15:45:53.332Z,998.05
2018-08-16T15:46:51.862Z,998.08
2018-08-16T15:47:54.689Z,998.06
2018-08-16T15:49:01.378Z,998.11
2018-08-16T15:50:03.201Z,998.01
2018-08-16T15:51:05.191Z,998.06
2018-08-16T15:52:04.756Z,998.02
2018-08-16T15:53:00.537Z,997.98
2018-08-16T15:54:05.811Z,997.96
2018-08-16T15:55:04.031Z,997.98
2018-08-16T15:56:13.435Z,997.92
2018-08-16T15:57:12.130Z,997.89
2018-08-16T15:58:09.970Z,997.96
2018-08-16T15:59:13.133Z,997.92
2018-08-16T16:00:13.598Z,997.96
2018-08-16T16:01:15.665Z,997.88
2018-08-16T16:02:17.351Z,997.89
2018-08-16T16:03:18.238Z,997.9
2018-08-16T16:04:13.711Z,997.92
2018-08-16T16:05:13.165Z,997.92
2018-08-16T16:06:17.101Z,997.9
2018-08-16T16:07:15.191Z,997.97
2018-08-16T16:08:25.201Z,997.92
2018-08-16T16:09:21.615Z,997.9
2018-08-16T16:10:19.411Z,997.85
2018-08-16T16:11:19.907Z,997.88
2018-08-16T16:12:17.529Z,997.91
2018-08-16T16:13:15.338Z,997.9
2018-08-16T16:14:16.056Z,997.9
2018-08-16T16:15:19.346Z,997.86
2018-08-16T16:16:19.469Z,997.85
2018-08-16T16:17:17.436Z,997.86
2018-08-16T16:18:17.001Z,997.85
2018-08-16T16:19:15.535Z,997.93
2018-08-16T16:20:23.415Z,997.88
2018-08-16T16:21:27.892Z,997.84
2018-08-16T16:22:23.883Z,997.88
2018-08-16T16:23:27.570Z,997.84
2018-08-16T16:24:26.890Z,997.79
2018-08-16T16:25:40.821Z,997.85
2018-08-16T16:26:35.604Z,997.81
2018-08-16T16:27:33.740Z,997.85
2018-08-16T16:28:35.391Z,997.83
2018-08-16T16:29:33.274Z,997.88
2018-08-16T16:30:31.629Z,997.75
2018-08-16T16:31:30.323Z,997.88
2018-08-16T16:32:31.336Z,997.8
2018-08-16T16:33:34.895Z,997.8
2018-08-16T16:34:35.594Z,997.83
2018-08-16T16:35:30.996Z,997.83
2018-08-16T16:36:32.021Z,997.76
2018-08-16T16:37:33.751Z,997.67
2018-08-16T16:38:47.604Z,997.76
2018-08-16T16:39:47.884Z,997.7
2018-08-16T16:40:48.334Z,997.73
2018-08-16T16:41:47.970Z,997.7
2018-08-16T16:42:48.170Z,997.82
2018-08-16T16:43:50.729Z,997.76
2018-08-16T16:44:51.608Z,997.79
2018-08-16T16:45:53.794Z,997.7
2018-08-16T16:46:53.552Z,997.63
2018-08-16T16:47:53.472Z,997.64
2018-08-16T16:48:52.577Z,997.66
2018-08-16T16:49:51.598Z,997.63
2018-08-16T16:50:53.330Z,997.73
2018-08-16T16:51:49.507Z,997.63
2018-08-16T16:52:59.619Z,997.64
2018-08-16T16:53:58.073Z,997.69
2018-08-16T16:55:00.929Z,997.64
2018-08-16T16:56:04.434Z,997.76
2018-08-16T16:57:04.903Z,997.67
2018-08-16T16:58:04.500Z,997.66
2018-08-16T16:59:08.799Z,997.67
2018-08-16T17:00:11.795Z,997.69
2018-08-16T17:01:09.624Z,997.67
2018-08-16T17:02:07.827Z,997.69
2018-08-16T17:03:06.428Z,997.66
2018-08-16T17:04:01.267Z,997.63
2018-08-16T17:05:14.655Z,997.67
2018-08-16T17:06:09.769Z,997.75
2018-08-16T17:07:12.581Z,997.61
2018-08-16T17:08:10.522Z,997.67
2018-08-16T17:09:10.414Z,997.64
2018-08-16T17:10:10.743Z,997.67
2018-08-16T17:11:09.879Z,997.69
2018-08-16T17:12:09.688Z,997.67
2018-08-16T17:13:09.939Z,997.66
2018-08-16T17:14:09.756Z,997.7
2018-08-16T17:15:04.621Z,997.67
2018-08-16T17:16:05.684Z,997.73
2018-08-16T17:17:09.248Z,997.73
2018-08-16T17:18:12.352Z,997.7
2018-08-16T17:19:26.561Z,997.67
2018-08-16T17:20:26.595Z,997.67
2018-08-16T17:21:27.129Z,997.7
2018-08-16T17:22:25.450Z,997.72
2018-08-16T17:23:23.887Z,997.75
2018-08-16T17:24:23.286Z,997.7
2018-08-16T17:25:24.208Z,997.69
2018-08-16T17:26:22.697Z,997.75
2018-08-16T17:27:20.722Z,997.63
2018-08-16T17:28:20.969Z,997.66
2018-08-16T17:29:21.599Z,997.63
2018-08-16T17:30:34.420Z,997.7
2018-08-16T17:31:29.923Z,997.66
2018-08-16T17:32:32.642Z,997.66
2018-08-16T17:33:33.208Z,997.66
2018-08-16T17:34:33.096Z,997.73
2018-08-16T17:35:32.893Z,997.64
2018-08-16T17:36:31.274Z,997.63
2018-08-16T17:37:29.757Z,997.64
2018-08-16T17:38:29.469Z,997.55
2018-08-16T17:39:33.401Z,997.6
2018-08-16T17:40:31.895Z,997.66
2018-08-16T17:41:30.301Z,997.67
2018-08-16T17:42:40.446Z,997.66
2018-08-16T17:43:46.253Z,997.61
2018-08-16T17:44:45.500Z,997.7
2018-08-16T17:45:44.963Z,997.58
2018-08-16T17:46:48.558Z,997.63
2018-08-16T17:47:55.789Z,997.66
2018-08-16T17:48:57.472Z,997.64
2018-08-16T17:49:55.630Z,997.63
2018-08-16T17:50:56.336Z,997.66
2018-08-16T17:51:56.984Z,997.64
2018-08-16T17:53:09.152Z,997.58
2018-08-16T17:54:06.056Z,997.61
2018-08-16T17:55:06.415Z,997.61
2018-08-16T17:56:06.742Z,997.61
2018-08-16T17:57:05.185Z,997.72
2018-08-16T17:58:03.212Z,997.55
2018-08-16T17:59:11.676Z,997.61
2018-08-16T18:00:15.541Z,997.57
2018-08-16T18:01:13.744Z,997.63
2018-08-16T18:02:09.640Z,997.61
2018-08-16T18:03:10.364Z,997.66
2018-08-16T18:04:07.810Z,997.67
2018-08-16T18:05:26.142Z,997.61
2018-08-16T18:06:27.814Z,997.64
2018-08-16T18:07:25.694Z,997.66
2018-08-16T18:08:29.958Z,997.64
2018-08-16T18:09:29.036Z,997.6
2018-08-16T18:10:25.485Z,997.61
2018-08-16T18:11:27.848Z,997.73
2018-08-16T18:12:26.366Z,997.63
2018-08-16T18:13:24.429Z,997.66
2018-08-16T18:14:28.271Z,997.67
2018-08-16T18:15:26.818Z,997.66
2018-08-16T18:16:25.928Z,997.67
2018-08-16T18:17:39.682Z,997.61
2018-08-16T18:18:36.126Z,997.67
2018-08-16T18:19:40.957Z,997.66
2018-08-16T18:20:40.273Z,997.69
2018-08-16T18:21:40.476Z,997.69
2018-08-16T18:22:49.050Z,997.67
2018-08-16T18:23:48.450Z,997.61
2018-08-16T18:24:47.543Z,997.66
2018-08-16T18:25:47.129Z,997.7
2018-08-16T18:26:46.620Z,997.69
2018-08-16T18:27:45.646Z,997.69
2018-08-16T18:29:00.963Z,997.64
2018-08-16T18:30:01.938Z,997.73
2018-08-16T18:31:04.533Z,997.66
2018-08-16T18:32:05.327Z,997.72
2018-08-16T18:33:07.846Z,997.7
2018-08-16T18:34:08.623Z,997.7
2018-08-16T18:35:08.053Z,997.76
2018-08-16T18:36:08.259Z,997.7
2018-08-16T18:37:22.472Z,997.79
2018-08-16T18:38:19.155Z,997.73
2018-08-16T18:39:20.254Z,997.76
2018-08-16T18:40:14.968Z,997.76
2018-08-16T18:41:15.322Z,997.87
2018-08-16T18:42:39.936Z,997.78
2018-08-16T18:43:27.432Z,997.84
2018-08-16T18:44:25.334Z,997.85
2018-08-16T18:45:24.881Z,997.79
2018-08-16T18:46:19.615Z,997.76
2018-08-16T18:47:22.147Z,997.82
2018-08-16T18:48:20.363Z,997.76
2018-08-16T18:49:25.025Z,997.79
2018-08-16T18:50:29.645Z,997.76
2018-08-16T18:51:27.382Z,997.78
2018-08-16T18:52:22.997Z,997.82
2018-08-16T18:53:25.837Z,997.85
2018-08-16T18:54:22.566Z,997.82
2018-08-16T18:55:20.153Z,997.84
2018-08-16T18:56:25.215Z,997.76
2018-08-16T18:57:26.229Z,997.78
2018-08-16T18:58:23.905Z,997.81
2018-08-16T18:59:21.329Z,997.78
2018-08-16T19:00:22.931Z,997.72
2018-08-16T19:01:34.632Z,997.89
2018-08-16T19:02:49.210Z,997.81
2018-08-16T19:03:46.312Z,997.82
2018-08-16T19:04:46.927Z,997.89
2018-08-16T19:05:44.624Z,997.87
2018-08-16T19:06:43.722Z,997.93
2018-08-16T19:07:45.662Z,997.88
2018-08-16T19:08:44.225Z,997.93
2018-08-16T19:09:42.858Z,997.93
2018-08-16T19:10:40.298Z,997.95
2018-08-16T19:11:43.515Z,998.04
2018-08-16T19:12:58.004Z,997.93
2018-08-16T19:13:57.257Z,997.98
2018-08-16T19:14:55.187Z,997.99
2018-08-16T19:15:53.186Z,998.05
2018-08-16T19:16:51.331Z,998.05
2018-08-16T19:17:50.150Z,998.07
2018-08-16T19:18:50.070Z,998.11
2018-08-16T19:19:48.403Z,998.01
2018-08-16T19:20:50.567Z,998.01
2018-08-16T19:21:49.329Z,998.02
2018-08-16T19:22:47.318Z,998.07
2018-08-16T19:24:00.154Z,998.04
2018-08-16T19:24:56.121Z,998.1
2018-08-16T19:26:08.982Z,998.02
2018-08-16T19:27:13.285Z,998.01
2018-08-16T19:28:11.633Z,998.07
2018-08-16T19:29:09.868Z,998.04
2018-08-16T19:30:09.225Z,998.08
2018-08-16T19:31:07.132Z,998.07
2018-08-16T19:32:21.390Z,998.01
2018-08-16T19:33:22.305Z,998.1
2018-08-16T19:34:20.939Z,998.07
2018-08-16T19:35:27.998Z,998.02
2018-08-16T19:36:30.859Z,998.11
2018-08-16T19:37:46.810Z,998.04
2018-08-16T19:38:41.627Z,998.12
2018-08-16T19:39:43.043Z,998.1
2018-08-16T19:40:49.479Z,998.17
2018-08-16T19:41:52.243Z,998.12
2018-08-16T19:42:56.491Z,998.23
2018-08-16T19:43:57.808Z,998.09
2018-08-16T19:44:57.711Z,998.09
2018-08-16T19:45:59.186Z,998.05
2018-08-16T19:46:56.131Z,998.17
2018-08-16T19:47:58.210Z,998.18
2018-08-16T19:48:58.583Z,998.04
2018-08-16T19:50:12.160Z,998.02
2018-08-16T19:51:07.629Z,998.12
2018-08-16T19:52:05.733Z,998.12
2018-08-16T19:53:16.435Z,998.11
2018-08-16T19:54:20.298Z,998.18
2018-08-16T19:55:28.388Z,998.12
2018-08-16T19:56:30.756Z,998.05
2018-08-16T19:57:30.665Z,998.08
2018-08-16T19:58:28.973Z,998.09
2018-08-16T19:59:27.085Z,998.17
2018-08-16T20:00:24.855Z,998.08
2018-08-16T20:01:20.933Z,998.03
2018-08-16T20:02:18.439Z,998.03
2018-08-16T20:03:23.310Z,998.02
2018-08-16T20:04:21.198Z,998.02
2018-08-16T20:05:36.226Z,998.05
2018-08-16T20:06:34.364Z,998.08
2018-08-16T20:07:32.528Z,998.02
2018-08-16T20:08:30.543Z,998.03
2018-08-16T20:09:29.650Z,998
2018-08-16T20:10:31.913Z,998.03
2018-08-16T20:11:31.288Z,998.05
2018-08-16T20:12:31.490Z,998.08
2018-08-16T20:13:32.812Z,998.05
2018-08-16T20:14:34.758Z,998.06
2018-08-16T20:15:47.893Z,998.05
2018-08-16T20:16:42.817Z,998.09
2018-08-16T20:17:42.094Z,998.18
2018-08-16T20:18:39.901Z,998.12
2018-08-16T20:19:39.552Z,998.09
2018-08-16T20:20:38.578Z,998.12
2018-08-16T20:21:40.355Z,998.17
2018-08-16T20:22:42.368Z,998.18
2018-08-16T20:23:39.898Z,998.18
2018-08-16T20:24:39.187Z,998.2
2018-08-16T20:25:47.987Z,998.12
2018-08-16T20:26:46.485Z,998.2
2018-08-16T20:27:59.218Z,998.05
2018-08-16T20:28:56.335Z,998.18
2018-08-16T20:29:54.053Z,998.2
2018-08-16T20:30:51.790Z,998.12
2018-08-16T20:31:51.506Z,998.17
2018-08-16T20:32:51.297Z,998.24
2018-08-16T20:33:54.576Z,998.12
2018-08-16T20:34:52.966Z,998.34
2018-08-16T20:35:53.472Z,998.26
2018-08-16T20:36:57.091Z,998.24
2018-08-16T20:38:08.669Z,998.31
2018-08-16T20:39:04.786Z,998.18
2018-08-16T20:40:05.490Z,998.23
2018-08-16T20:41:11.133Z,998.2
2018-08-16T20:42:10.550Z,998.29
2018-08-16T20:43:13.163Z,998.23
2018-08-16T20:44:12.986Z,998.28
2018-08-16T20:45:10.591Z,998.24
2018-08-16T20:46:08.961Z,998.29
2018-08-16T20:47:04.375Z,998.26
2018-08-16T20:48:02.180Z,998.34
2018-08-16T20:49:02.707Z,998.24
2018-08-16T20:50:15.764Z,998.31
2018-08-16T20:51:15.865Z,998.28
2018-08-16T20:52:21.204Z,998.21
2018-08-16T20:53:19.821Z,998.23
2018-08-16T20:54:18.102Z,998.28
2018-08-16T20:55:18.614Z,998.2
2018-08-16T20:56:14.431Z,998.24
2018-08-16T20:57:18.359Z,998.29
2018-08-16T20:58:17.125Z,998.28
2018-08-16T20:59:27.779Z,998.37
2018-08-16T21:00:25.973Z,998.26
2018-08-16T21:01:24.738Z,998.26
2018-08-16T21:02:34.582Z,998.35
2018-08-16T21:03:44.416Z,998.26
2018-08-16T21:04:41.744Z,998.34
2018-08-16T21:05:55.354Z,998.35
2018-08-16T21:06:51.415Z,998.35
2018-08-16T21:07:50.285Z,998.34
2018-08-16T21:08:55.705Z,998.41
2018-08-16T21:09:54.107Z,998.31
2018-08-16T21:10:57.780Z,998.35
2018-08-16T21:11:55.978Z,998.31
2018-08-16T21:12:58.804Z,998.38
2018-08-16T21:13:56.059Z,998.37
2018-08-16T21:15:00.826Z,998.4
2018-08-16T21:15:59.255Z,998.47
2018-08-16T21:17:05.148Z,998.47
2018-08-16T21:18:05.240Z,998.52
2018-08-16T21:19:10.086Z,998.5
2018-08-16T21:20:09.038Z,998.44
2018-08-16T21:21:37.388Z,998.5
2018-08-16T21:22:23.337Z,998.41
2018-08-16T21:23:27.000Z,998.47
2018-08-16T21:24:26.359Z,998.47
2018-08-16T21:25:25.601Z,998.43
2018-08-16T21:26:23.828Z,998.41
2018-08-16T21:27:25.462Z,998.46
2018-08-16T21:28:25.467Z,998.4
2018-08-16T21:29:24.992Z,998.4
2018-08-16T21:30:23.714Z,998.37
2018-08-16T21:31:34.873Z,998.41
2018-08-16T21:32:33.989Z,998.38
2018-08-16T21:33:32.346Z,998.32
2018-08-16T21:34:36.599Z,998.35
2018-08-16T21:35:32.652Z,998.31
2018-08-16T21:36:30.764Z,998.34
2018-08-16T21:37:45.965Z,998.41
2018-08-16T21:38:42.958Z,998.4
2018-08-16T21:39:43.756Z,998.41
2018-08-16T21:40:42.272Z,998.32
2018-08-16T21:41:46.396Z,998.38
2018-08-16T21:42:51.394Z,998.41
2018-08-16T21:43:46.379Z,998.34
2018-08-16T21:44:50.140Z,998.34
2018-08-16T21:45:47.898Z,998.4
2018-08-16T21:46:48.404Z,998.4
2018-08-16T21:47:47.853Z,998.35
2018-08-16T21:49:05.783Z,998.4
2018-08-16T21:50:04.854Z,998.4
2018-08-16T21:51:07.186Z,998.37
2018-08-16T21:52:05.732Z,998.44
2018-08-16T21:53:03.547Z,998.44
2018-08-16T21:54:02.643Z,998.47
2018-08-16T21:55:08.381Z,998.34
2018-08-16T21:55:59.610Z,998.41
2018-08-16T21:57:00.681Z,998.4
2018-08-16T21:57:59.407Z,998.46
2018-08-16T21:59:01.707Z,998.34
2018-08-16T22:00:18.817Z,998.44
2018-08-16T22:01:20.074Z,998.4
2018-08-16T22:02:19.641Z,998.38
2018-08-16T22:03:21.869Z,998.47
2018-08-16T22:04:20.982Z,998.44
2018-08-16T22:05:20.810Z,998.46
2018-08-16T22:06:20.408Z,998.41
2018-08-16T22:07:25.315Z,998.41
2018-08-16T22:08:28.431Z,998.46
2018-08-16T22:09:24.797Z,998.46
2018-08-16T22:10:27.881Z,998.43
2018-08-16T22:11:27.327Z,998.37
2018-08-16T22:12:22.470Z,998.34
2018-08-16T22:13:38.356Z,998.4
2018-08-16T22:14:35.734Z,998.35
2018-08-16T22:15:37.582Z,998.37
2018-08-16T22:16:35.811Z,998.29
2018-08-16T22:17:35.581Z,998.37
2018-08-16T22:18:36.913Z,998.37
2018-08-16T22:19:35.485Z,998.35
2018-08-16T22:20:38.535Z,998.35
2018-08-16T22:21:36.368Z,998.4
2018-08-16T22:22:37.774Z,998.29
2018-08-16T22:23:36.405Z,998.43
2018-08-16T22:24:34.134Z,998.4
2018-08-16T22:25:31.448Z,998.35
2018-08-16T22:26:29.493Z,998.31
2018-08-16T22:27:52.093Z,998.34
2018-08-16T22:28:48.736Z,998.35
2018-08-16T22:29:49.604Z,998.34
2018-08-16T22:30:56.958Z,998.32
2018-08-16T22:31:57.829Z,998.37
2018-08-16T22:33:03.816Z,998.37
2018-08-16T22:34:03.078Z,998.46
2018-08-16T22:35:03.393Z,998.44
2018-08-16T22:36:07.005Z,998.47
2018-08-16T22:37:04.826Z,998.37
2018-08-16T22:38:15.410Z,998.41
2018-08-16T22:39:11.429Z,998.35
2018-08-16T22:40:29.574Z,998.37
2018-08-16T22:41:29.259Z,998.46
2018-08-16T22:42:30.611Z,998.43
2018-08-16T22:43:26.686Z,998.38
2018-08-16T22:44:28.509Z,998.38
2018-08-16T22:45:26.572Z,998.35
2018-08-16T22:46:25.436Z,998.46
2018-08-16T22:47:28.891Z,998.43
2018-08-16T22:48:24.280Z,998.28
2018-08-16T22:49:26.572Z,998.34
2018-08-16T22:50:46.077Z,998.38
2018-08-16T22:51:41.363Z,998.38
2018-08-16T22:52:42.898Z,998.44
2018-08-16T22:53:45.948Z,998.37
2018-08-16T22:54:44.310Z,998.29
2018-08-16T22:55:51.938Z,998.44
2018-08-16T22:56:54.687Z,998.41
2018-08-16T22:57:55.906Z,998.44
2018-08-16T22:58:57.125Z,998.44
2018-08-16T23:00:11.085Z,998.31
2018-08-16T23:01:05.670Z,998.4
2018-08-16T23:02:18.455Z,998.43
2018-08-16T23:03:15.310Z,998.37
2018-08-16T23:04:25.579Z,998.35
2018-08-16T23:05:37.470Z,998.35
2018-08-16T23:06:35.207Z,998.4
2018-08-16T23:07:33.027Z,998.37
2018-08-16T23:08:34.805Z,998.47
2018-08-16T23:09:34.921Z,998.31
2018-08-16T23:10:36.495Z,998.37
2018-08-16T23:11:39.524Z,998.26
2018-08-16T23:12:41.801Z,998.32
2018-08-16T23:13:39.640Z,998.29
2018-08-16T23:14:52.585Z,998.31
2018-08-16T23:15:49.099Z,998.32
2018-08-16T23:16:47.260Z,998.31
2018-08-16T23:17:42.419Z,998.2
2018-08-16T23:18:44.181Z,998.32
2018-08-16T23:19:42.674Z,998.26
2018-08-16T23:20:43.000Z,998.32
2018-08-16T23:21:46.498Z,998.31
2018-08-16T23:22:44.503Z,998.34
2018-08-16T23:23:46.988Z,998.29
2018-08-16T23:24:45.704Z,998.26
2018-08-16T23:25:44.098Z,998.29
2018-08-16T23:26:56.916Z,998.28
2018-08-16T23:27:54.361Z,998.28
2018-08-16T23:28:52.212Z,998.34
2018-08-16T23:29:53.198Z,998.26
2018-08-16T23:30:53.637Z,998.26
2018-08-16T23:31:51.442Z,998.2
2018-08-16T23:32:53.122Z,998.23
2018-08-16T23:34:06.798Z,998.2
2018-08-16T23:35:06.072Z,998.17
2018-08-16T23:36:06.995Z,998.13
2018-08-16T23:37:09.589Z,998.23
2018-08-16T23:38:07.463Z,998.11
2018-08-16T23:39:02.823Z,998.13
2018-08-16T23:40:01.627Z,998.17
2018-08-16T23:41:02.292Z,998.22
2018-08-16T23:42:03.985Z,998.11
2018-08-16T23:43:07.346Z,998.17
2018-08-16T23:44:08.020Z,998.22
2018-08-16T23:45:08.519Z,998.11
2018-08-16T23:46:07.861Z,998.2
2018-08-16T23:47:22.293Z,998.2
2018-08-16T23:48:17.065Z,998.22
2018-08-16T23:49:17.121Z,998.13
2018-08-16T23:50:14.936Z,998.25
2018-08-16T23:51:13.910Z,998.22
2018-08-16T23:52:20.727Z,998.2
2018-08-16T23:53:20.423Z,998.19
2018-08-16T23:54:18.434Z,998.07
2018-08-16T23:55:19.544Z,998.05
2018-08-16T23:56:17.081Z,998.17
2018-08-16T23:57:19.972Z,998.02
2018-08-16T23:58:26.726Z,998.04
2018-08-16T23:59:23.248Z,998.04
